Wausau, WI (54401)

2:22 AM CDT on October 31, 2014 (GMT -0500)
Hawthorn Hills Elementary School | Change Station
CLOSE
Current Station
Personal Weather Station
Location: Wausau, WI
Elevation: 1201 ft
Nearby Weather Stations
Active Advisory: Special Statement

Elev 1201 ft 44.96 °N, 89.61 °W | Updated 5 seconds ago

Snow
Snow Freezing Fog
31.4 °F
Feels Like 24 °F
N
8.0
Wind Variable Wind from NNW
Gusts 15.0 mph

Today
High -- | Low -- °F
--% Chance of Precip.
Yesterday
High -- | Low -- °F
Precip. -- in
7:35 AM 5:48 PM
First Quarter, 52% visible
Pressure 30.12 in
Visibility 0.5 miles
Clouds
Windchill 24 °F
Dew Point 29 °F
Humidity 92%
Rainfall 0.00 in
Snow Depth Not available.
UV Not available.
Pollen .10 out of 12
Air Quality Not available.
Flu Activity Not available.
SPECI KAUW 310709Z AUTO 35016G27KT 1/2SM SN FZFG VV009 M01/M02 A3012 RMK AO2 PK WND 34027/0703 P0001 T10061017

More Conditions Fewer Conditions

Pressure 30.12 in
Visibility 0.5 miles
Clouds
Windchill 24 °F
Dew Point 29 °F
Humidity 92%
Rainfall 0.00 in
Snow Depth Not available.
UV Not available.
Pollen .10 out of 12
Air Quality Not available.
Flu Activity Not available.
SPECI KAUW 310709Z AUTO 35016G27KT 1/2SM SN FZFG VV009 M01/M02 A3012 RMK AO2 PK WND 34027/0703 P0001 T10061017

More Conditions Fewer Conditions

10-Day Weather Forecast

Almanac

Astronomy

Oct. 31, 2014 Rise Set
Actual Time
Civil Twilight
Nautical Twilight
Astronomical Twilight
Moon
Length of Visible Light
Length of Day
Tomorrow will be .
, % of the Moon is Illuminated

Today's Extremes

State Highs State Lows

Community

WunderPhotos

Upload Photos

1,766,573 photos uploaded!

WunderBlogs® & News

Nearby

Air Quality

  Air Quality AQ Index Pollutant
Not available.

Snow Depth

Station Depth Elevation

Earthquake Activity

City Distance Mag. Time & Date
Minimum magnitude displayed is 2.5.

Coastal Water Temperatures

Place Temperature

Nearby Weather Stations